Mariner Of The Seas — C6FV9 — position and weather

sailwx.info

Track history (hours):
 
Tides and Currents Weather Stations Pressure Air Temp Water Temp Dewpoint Dewpoint Depression Visibility Wind Speed Wind Dir Waves Ship Positions

Mariner Of The Seas

Operator: Royal Caribbean Cruises Ltd

Last reported at 2014-Oct-24 12:33 UTC. Time now 2014-Oct-25 16:00 UTC.
Position N 33°41' E 129°54'.

Type: Passenger vessel. MMSI: 311493000.

Date/timePositionNaut miles runAvg speedWind from/ knotsBaromVisibWave heightAir tempDewpointWater temp
2014-Oct-24 12:33N 33°41' E 129°54'10 9.6
2014-Oct-24 11:32N 33°45' E 130°05'9 9.1
2014-Oct-24 10:33N 33°43' E 130°15'9 9.1
2014-Oct-24 09:32N 33°37' E 130°24'0 0.2
2014-Oct-24 08:32N 33°37' E 130°24'0 0.0
2014-Oct-24 07:32N 33°37' E 130°24'0 0.0
2014-Oct-24 06:32N 33°37' E 130°24'0 0.0
2014-Oct-24 05:32N 33°37' E 130°24'0 0.0
2014-Oct-24 04:32N 33°37' E 130°24'0 0.0
2014-Oct-24 03:32N 33°37' E 130°24'0 0.0
2014-Oct-24 02:32N 33°37' E 130°24'0 0.0
2014-Oct-24 01:32N 33°37' E 130°24'0 0.0
2014-Oct-24 00:32N 33°37' E 130°24'0 0.0
2014-Oct-23 23:32N 33°37' E 130°24'5 4.9
2014-Oct-23 22:33N 33°39' E 130°19'1313.3
2014-Oct-23 21:33N 33°52' E 130°18'  
2014-Oct-21 09:33N 31°21' E 121°40'9 7.2
2014-Oct-21 08:16N 31°25' E 121°30'0 0.0
2014-Oct-21 07:28N 31°25' E 121°30'0 0.0
2014-Oct-21 06:28N 31°25' E 121°30'0 0.0
2014-Oct-21 05:10N 31°25' E 121°30'0 0.0
2014-Oct-21 04:28N 31°25' E 121°30'0 0.0
2014-Oct-21 03:28N 31°25' E 121°30'0 0.0
2014-Oct-21 02:16N 31°25' E 121°30'0 0.0
2014-Oct-21 01:22N 31°25' E 121°30'0 0.0
2014-Oct-21 00:22N 31°25' E 121°30'0 0.0
2014-Oct-20 23:22N 31°25' E 121°30'4 4.7
2014-Oct-20 22:33N 31°23' E 121°34'1511.8
2014-Oct-20 21:15N 31°17' E 121°51'2210.5
2014-Oct-20 19:07N 31°08' E 122°15'711.8
2014-Oct-20 18:32N 31°06' E 122°23'  
2014-Oct-18 14:29N 31°12' E 122°33'4013.0
2014-Oct-18 11:23N 31°18' E 121°46'8 9.1
2014-Oct-18 10:33N 31°22' E 121°38'8 7.6
2014-Oct-18 09:33N 31°25' E 121°30'0 0.0
2014-Oct-18 08:29N 31°25' E 121°30'0 0.0
2014-Oct-18 07:29N 31°25' E 121°30'0 0.0
2014-Oct-18 06:23N 31°25' E 121°30'0 0.0
2014-Oct-18 05:29N 31°25' E 121°30'0 0.0
2014-Oct-18 04:29N 31°25' E 121°30'0 0.0
2014-Oct-18 03:29N 31°25' E 121°30'0 0.0
2014-Oct-18 02:17N 31°25' E 121°30'0 0.0
2014-Oct-18 01:29N 31°25' E 121°30'0 0.0
2014-Oct-18 00:29N 31°25' E 121°30'0 0.0
2014-Oct-17 23:05N 31°25' E 121°30'0 0.2
2014-Oct-17 22:33N 31°25' E 121°30'9 9.4
2014-Oct-17 21:33N 31°21' E 121°40'1413.1
2014-Oct-17 20:27N 31°15' E 121°56'1010.8
2014-Oct-17 19:31N 31°13' E 122°07'1110.3
2014-Oct-17 18:24N 31°06' E 122°18'1011.6
2014-Oct-17 17:33N 31°08' E 122°30'  
2014-Oct-14 15:21N 31°19' E 121°45'1012.3
2014-Oct-14 14:33N 31°23' E 121°35'4 4.3
2014-Oct-14 13:32N 31°25' E 121°30'  
Track history (hours):
 
Tides and Currents Weather Stations Pressure Air Temp Water Temp Dewpoint Dewpoint Depression Visibility Wind Speed Wind Dir Waves Ship Positions

Mariner Of The Seas

Operator: Royal Caribbean Cruises Ltd

Last reported at 2014-Oct-24 12:33 UTC. Time now 2014-Oct-25 16:00 UTC.
Position N 33°41' E 129°54'.

Type: Passenger vessel. MMSI: 311493000.

Date/timePositionNaut miles runAvg speedWind from/ knotsBaromVisibWave heightAir tempDewpointWater temp
2014-Oct-24 12:33N 33°41' E 129°54'10 9.6
2014-Oct-24 11:32N 33°45' E 130°05'9 9.1
2014-Oct-24 10:33N 33°43' E 130°15'9 9.1
2014-Oct-24 09:32N 33°37' E 130°24'0 0.2
2014-Oct-24 08:32N 33°37' E 130°24'0 0.0
2014-Oct-24 07:32N 33°37' E 130°24'0 0.0
2014-Oct-24 06:32N 33°37' E 130°24'0 0.0
2014-Oct-24 05:32N 33°37' E 130°24'0 0.0
2014-Oct-24 04:32N 33°37' E 130°24'0 0.0
2014-Oct-24 03:32N 33°37' E 130°24'0 0.0
2014-Oct-24 02:32N 33°37' E 130°24'0 0.0
2014-Oct-24 01:32N 33°37' E 130°24'0 0.0
2014-Oct-24 00:32N 33°37' E 130°24'0 0.0
2014-Oct-23 23:32N 33°37' E 130°24'5 4.9
2014-Oct-23 22:33N 33°39' E 130°19'1313.3
2014-Oct-23 21:33N 33°52' E 130°18'  
2014-Oct-21 09:33N 31°21' E 121°40'9 7.2
2014-Oct-21 08:16N 31°25' E 121°30'0 0.0
2014-Oct-21 07:28N 31°25' E 121°30'0 0.0
2014-Oct-21 06:28N 31°25' E 121°30'0 0.0
2014-Oct-21 05:10N 31°25' E 121°30'0 0.0
2014-Oct-21 04:28N 31°25' E 121°30'0 0.0
2014-Oct-21 03:28N 31°25' E 121°30'0 0.0
2014-Oct-21 02:16N 31°25' E 121°30'0 0.0
2014-Oct-21 01:22N 31°25' E 121°30'0 0.0
2014-Oct-21 00:22N 31°25' E 121°30'0 0.0
2014-Oct-20 23:22N 31°25' E 121°30'4 4.7
2014-Oct-20 22:33N 31°23' E 121°34'1511.8
2014-Oct-20 21:15N 31°17' E 121°51'2210.5
2014-Oct-20 19:07N 31°08' E 122°15'711.8
2014-Oct-20 18:32N 31°06' E 122°23'  
2014-Oct-18 14:29N 31°12' E 122°33'4013.0
2014-Oct-18 11:23N 31°18' E 121°46'8 9.1
2014-Oct-18 10:33N 31°22' E 121°38'8 7.6
2014-Oct-18 09:33N 31°25' E 121°30'0 0.0
2014-Oct-18 08:29N 31°25' E 121°30'0 0.0
2014-Oct-18 07:29N 31°25' E 121°30'0 0.0
2014-Oct-18 06:23N 31°25' E 121°30'0 0.0
2014-Oct-18 05:29N 31°25' E 121°30'0 0.0
2014-Oct-18 04:29N 31°25' E 121°30'0 0.0
2014-Oct-18 03:29N 31°25' E 121°30'0 0.0
2014-Oct-18 02:17N 31°25' E 121°30'0 0.0
2014-Oct-18 01:29N 31°25' E 121°30'0 0.0
2014-Oct-18 00:29N 31°25' E 121°30'0 0.0
2014-Oct-17 23:05N 31°25' E 121°30'0 0.2
2014-Oct-17 22:33N 31°25' E 121°30'9 9.4
2014-Oct-17 21:33N 31°21' E 121°40'1413.1
2014-Oct-17 20:27N 31°15' E 121°56'1010.8
2014-Oct-17 19:31N 31°13' E 122°07'1110.3
2014-Oct-17 18:24N 31°06' E 122°18'1011.6
2014-Oct-17 17:33N 31°08' E 122°30'  
2014-Oct-14 15:21N 31°19' E 121°45'1012.3
2014-Oct-14 14:33N 31°23' E 121°35'4 4.3
2014-Oct-14 13:32N 31°25' E 121°30'  

Dump ship's entire track history